Pagrindinis puslapis
METAR-TAF:

METAR-TAF

Oro uostai :

Las Vegasas, Nevada, Jungtinės Amerikos Valstijos

platuma: 36-04-44N, ilguma: 115-09-19W, Aukštis: 663 m

Dabartinis oras

Ataskaita buvo paskelbta 20 minutes, ne 02:56 UTC
Vėjas 5 kt iš Pietvakarių
Temperatūra 17°C
Drėgmė 19%
Slėgis 1019 hPa
Matomumas: 16.1 km
Giedras dangus

METAR: KLAS 300256Z 23005KT 10SM CLR 17/M07 A3009 RMK AO2 SLP183 T01721072 53001

Laikas: 19:16 (03:16 UTC)

Prognozė

Ataskaita buvo paskelbta 3 valandos ir 56 minutes, ne 23:20 UTC
Prognozė galioja nuo 30 metu 00 UTC su 01 metu 06 UTC
Vėjas 5 kt nuo kintamojo kryptimis
Matomumas: 10 km
Giedras dangus
Nuo 30 metu 0200 UTC
Vėjas 6 kt iš Vakarų/Pietvakarių
Matomumas: 10 km
Giedras dangus
Nuo 30 metu 1900 UTC
Vėjas 7 kt iš Šiaurės/Šiaurės Rytų
Matomumas: 10 km
Giedras dangus
Nuo 01 metu 0100 UTC
Vėjas 6 kt iš Vakarų
Matomumas: 10 km
Giedras dangus

TAF: KLAS 292320Z 3000/0106 VRB05KT P6SM SKC FM300200 25006KT P6SM SKC FM301900 02007KT P6SM SKC FM010100 27006KT P6SM SKC

Orai ataskaitas ir orų prognozės (METAR, TAF).

turimą stotys yra geltonos ir raudonos taškus žemėlapyje.

Perkelti pele per norėdami pamatyti stoties vardą.

Tada spustelėkite, norėdami matyti oro stebėjimo ir prognozės.

Norėdami pakeisti žemėlapį: spustelėkite ant žalios mygtukų su juodo kryžiaus žemyn,; žalią mygtuką su brūkšneliu, jei norite nutolinti; arba žalių rodyklių gretimoms žemėlapius.


METAR-TAF: